sensor_id;sensor_type;location;lat;lon;timestamp;temperature;humidity
68746;SHT31;73143;45.456;11.064;2024-02-23T00:00:30;10.94;79.32
68746;SHT31;73143;45.456;11.064;2024-02-23T00:03:07;10.91;79.22
68746;SHT31;73143;45.456;11.064;2024-02-23T00:05:46;10.88;79.00
68746;SHT31;73143;45.456;11.064;2024-02-23T00:08:24;10.86;78.98
68746;SHT31;73143;45.456;11.064;2024-02-23T00:11:00;10.85;78.99
68746;SHT31;73143;45.456;11.064;2024-02-23T00:13:39;10.83;79.06
68746;SHT31;73143;45.456;11.064;2024-02-23T00:16:17;10.80;78.91
68746;SHT31;73143;45.456;11.064;2024-02-23T00:18:56;10.80;79.03
68746;SHT31;73143;45.456;11.064;2024-02-23T00:21:33;10.77;79.19
68746;SHT31;73143;45.456;11.064;2024-02-23T00:24:11;10.74;78.95
68746;SHT31;73143;45.456;11.064;2024-02-23T00:26:49;10.72;79.02
68746;SHT31;73143;45.456;11.064;2024-02-23T00:29:26;10.71;79.22
68746;SHT31;73143;45.456;11.064;2024-02-23T00:32:04;10.70;78.98
68746;SHT31;73143;45.456;11.064;2024-02-23T00:34:42;10.70;78.88
68746;SHT31;73143;45.456;11.064;2024-02-23T00:37:20;10.70;78.82
68746;SHT31;73143;45.456;11.064;2024-02-23T00:39:58;10.70;78.84
68746;SHT31;73143;45.456;11.064;2024-02-23T00:42:39;10.71;78.84
68746;SHT31;73143;45.456;11.064;2024-02-23T00:45:17;10.71;78.70
68746;SHT31;73143;45.456;11.064;2024-02-23T00:47:54;10.70;78.90
68746;SHT31;73143;45.456;11.064;2024-02-23T00:50:30;10.71;78.86
68746;SHT31;73143;45.456;11.064;2024-02-23T00:53:07;10.72;78.73
68746;SHT31;73143;45.456;11.064;2024-02-23T00:55:47;10.70;79.12
68746;SHT31;73143;45.456;11.064;2024-02-23T00:58:24;10.69;79.13
68746;SHT31;73143;45.456;11.064;2024-02-23T01:01:02;10.68;79.13
68746;SHT31;73143;45.456;11.064;2024-02-23T01:03:39;10.67;79.19
68746;SHT31;73143;45.456;11.064;2024-02-23T01:06:15;10.66;79.20
68746;SHT31;73143;45.456;11.064;2024-02-23T01:08:52;10.63;79.03
68746;SHT31;73143;45.456;11.064;2024-02-23T01:11:29;10.62;79.19
68746;SHT31;73143;45.456;11.064;2024-02-23T01:14:07;10.60;79.07
68746;SHT31;73143;45.456;11.064;2024-02-23T01:16:44;10.59;79.20
68746;SHT31;73143;45.456;11.064;2024-02-23T01:19:23;10.59;79.17
68746;SHT31;73143;45.456;11.064;2024-02-23T01:22:00;10.59;79.01
68746;SHT31;73143;45.456;11.064;2024-02-23T01:24:37;10.59;78.79
68746;SHT31;73143;45.456;11.064;2024-02-23T01:27:14;10.63;78.61
68746;SHT31;73143;45.456;11.064;2024-02-23T01:29:51;10.64;78.38
68746;SHT31;73143;45.456;11.064;2024-02-23T01:32:28;10.68;77.88
68746;SHT31;73143;45.456;11.064;2024-02-23T01:35:09;10.71;78.04
68746;SHT31;73143;45.456;11.064;2024-02-23T01:37:47;10.75;77.51
68746;SHT31;73143;45.456;11.064;2024-02-23T01:40:25;10.77;77.34
68746;SHT31;73143;45.456;11.064;2024-02-23T01:43:02;10.79;76.73
68746;SHT31;73143;45.456;11.064;2024-02-23T01:45:39;10.80;76.81
68746;SHT31;73143;45.456;11.064;2024-02-23T01:48:18;10.81;76.80
68746;SHT31;73143;45.456;11.064;2024-02-23T01:50:55;10.84;76.77
68746;SHT31;73143;45.456;11.064;2024-02-23T01:53:32;10.82;76.50
68746;SHT31;73143;45.456;11.064;2024-02-23T01:56:08;10.81;76.95
68746;SHT31;73143;45.456;11.064;2024-02-23T01:58:48;10.81;76.95
68746;SHT31;73143;45.456;11.064;2024-02-23T02:01:26;10.82;76.59
68746;SHT31;73143;45.456;11.064;2024-02-23T02:04:02;10.89;76.48
68746;SHT31;73143;45.456;11.064;2024-02-23T02:06:40;10.91;76.56
68746;SHT31;73143;45.456;11.064;2024-02-23T02:09:18;10.92;76.59
68746;SHT31;73143;45.456;11.064;2024-02-23T02:11:56;10.94;76.33
68746;SHT31;73143;45.456;11.064;2024-02-23T02:14:33;10.92;76.54
68746;SHT31;73143;45.456;11.064;2024-02-23T02:17:09;10.88;76.53
68746;SHT31;73143;45.456;11.064;2024-02-23T02:19:47;10.86;76.95
68746;SHT31;73143;45.456;11.064;2024-02-23T02:22:25;10.83;77.30
68746;SHT31;73143;45.456;11.064;2024-02-23T02:25:03;10.81;77.05
68746;SHT31;73143;45.456;11.064;2024-02-23T02:27:45;10.80;77.15
68746;SHT31;73143;45.456;11.064;2024-02-23T02:30:22;10.79;77.28
68746;SHT31;73143;45.456;11.064;2024-02-23T02:33:00;10.79;77.29
68746;SHT31;73143;45.456;11.064;2024-02-23T02:35:37;10.77;77.14
68746;SHT31;73143;45.456;11.064;2024-02-23T02:38:16;10.78;76.93
68746;SHT31;73143;45.456;11.064;2024-02-23T02:40:52;10.78;76.94
68746;SHT31;73143;45.456;11.064;2024-02-23T02:43:29;10.81;76.75
68746;SHT31;73143;45.456;11.064;2024-02-23T02:46:06;10.83;76.99
68746;SHT31;73143;45.456;11.064;2024-02-23T02:48:44;10.81;76.87
68746;SHT31;73143;45.456;11.064;2024-02-23T02:51:21;10.82;76.77
68746;SHT31;73143;45.456;11.064;2024-02-23T02:53:59;10.82;76.77
68746;SHT31;73143;45.456;11.064;2024-02-23T02:56:41;10.83;76.45
68746;SHT31;73143;45.456;11.064;2024-02-23T02:59:19;10.86;76.32
68746;SHT31;73143;45.456;11.064;2024-02-23T03:01:57;10.87;76.21
68746;SHT31;73143;45.456;11.064;2024-02-23T03:04:35;10.87;76.22
68746;SHT31;73143;45.456;11.064;2024-02-23T03:07:18;10.87;76.31
68746;SHT31;73143;45.456;11.064;2024-02-23T03:09:54;10.88;76.18
68746;SHT31;73143;45.456;11.064;2024-02-23T03:12:33;10.91;76.00
68746;SHT31;73143;45.456;11.064;2024-02-23T03:15:11;10.93;76.16
68746;SHT31;73143;45.456;11.064;2024-02-23T03:17:48;10.92;76.13
68746;SHT31;73143;45.456;11.064;2024-02-23T03:20:27;10.91;76.26
68746;SHT31;73143;45.456;11.064;2024-02-23T03:23:05;10.91;76.09
68746;SHT31;73143;45.456;11.064;2024-02-23T03:25:42;10.92;76.21
68746;SHT31;73143;45.456;11.064;2024-02-23T03:28:19;10.95;75.88
68746;SHT31;73143;45.456;11.064;2024-02-23T03:30:57;11.00;75.68
68746;SHT31;73143;45.456;11.064;2024-02-23T03:33:34;11.02;75.59
68746;SHT31;73143;45.456;11.064;2024-02-23T03:36:11;11.02;75.86
68746;SHT31;73143;45.456;11.064;2024-02-23T03:38:49;11.02;76.05
68746;SHT31;73143;45.456;11.064;2024-02-23T03:41:27;11.02;75.79
68746;SHT31;73143;45.456;11.064;2024-02-23T03:44:05;11.02;75.85
68746;SHT31;73143;45.456;11.064;2024-02-23T03:46:43;11.06;75.36
68746;SHT31;73143;45.456;11.064;2024-02-23T03:49:20;11.12;75.15
68746;SHT31;73143;45.456;11.064;2024-02-23T03:51:58;11.17;75.16
68746;SHT31;73143;45.456;11.064;2024-02-23T03:54:36;11.17;75.45
68746;SHT31;73143;45.456;11.064;2024-02-23T03:57:13;11.18;75.46
68746;SHT31;73143;45.456;11.064;2024-02-23T03:59:53;11.20;75.44
68746;SHT31;73143;45.456;11.064;2024-02-23T04:02:40;11.23;74.90
68746;SHT31;73143;45.456;11.064;2024-02-23T04:05:17;11.32;74.43
68746;SHT31;73143;45.456;11.064;2024-02-23T04:07:54;11.40;74.04
68746;SHT31;73143;45.456;11.064;2024-02-23T04:10:34;11.48;73.78
68746;SHT31;73143;45.456;11.064;2024-02-23T04:13:12;11.46;74.23
68746;SHT31;73143;45.456;11.064;2024-02-23T04:15:49;11.46;74.38
68746;SHT31;73143;45.456;11.064;2024-02-23T04:18:26;11.41;74.87
68746;SHT31;73143;45.456;11.064;2024-02-23T04:21:04;11.37;75.21
68746;SHT31;73143;45.456;11.064;2024-02-23T04:23:41;11.35;75.35
68746;SHT31;73143;45.456;11.064;2024-02-23T04:26:18;11.33;75.49
68746;SHT31;73143;45.456;11.064;2024-02-23T04:28:56;11.33;75.06
68746;SHT31;73143;45.456;11.064;2024-02-23T04:31:33;11.36;75.15
68746;SHT31;73143;45.456;11.064;2024-02-23T04:34:13;11.35;75.28
68746;SHT31;73143;45.456;11.064;2024-02-23T04:36:51;11.35;75.40
68746;SHT31;73143;45.456;11.064;2024-02-23T04:39:28;11.36;74.74
68746;SHT31;73143;45.456;11.064;2024-02-23T04:42:07;11.41;74.48
68746;SHT31;73143;45.456;11.064;2024-02-23T04:44:44;11.46;74.56
68746;SHT31;73143;45.456;11.064;2024-02-23T04:47:23;11.48;74.31
68746;SHT31;73143;45.456;11.064;2024-02-23T04:50:02;11.52;74.09
68746;SHT31;73143;45.456;11.064;2024-02-23T04:52:42;11.54;73.73
68746;SHT31;73143;45.456;11.064;2024-02-23T04:55:20;11.56;73.98
68746;SHT31;73143;45.456;11.064;2024-02-23T04:57:57;11.55;74.20
68746;SHT31;73143;45.456;11.064;2024-02-23T05:00:34;11.53;74.19
68746;SHT31;73143;45.456;11.064;2024-02-23T05:03:11;11.54;74.27
68746;SHT31;73143;45.456;11.064;2024-02-23T05:05:48;11.52;74.21
68746;SHT31;73143;45.456;11.064;2024-02-23T05:08:25;11.52;74.20
68746;SHT31;73143;45.456;11.064;2024-02-23T05:11:03;11.53;73.79
68746;SHT31;73143;45.456;11.064;2024-02-23T05:13:40;11.57;73.46
68746;SHT31;73143;45.456;11.064;2024-02-23T05:16:17;11.61;73.08
68746;SHT31;73143;45.456;11.064;2024-02-23T05:18:54;11.68;73.08
68746;SHT31;73143;45.456;11.064;2024-02-23T05:21:32;11.70;73.06
68746;SHT31;73143;45.456;11.064;2024-02-23T05:24:10;11.72;72.96
68746;SHT31;73143;45.456;11.064;2024-02-23T05:26:48;11.75;72.73
68746;SHT31;73143;45.456;11.064;2024-02-23T05:29:26;11.81;72.62
68746;SHT31;73143;45.456;11.064;2024-02-23T05:32:08;11.83;72.66
68746;SHT31;73143;45.456;11.064;2024-02-23T05:34:46;11.84;72.62
68746;SHT31;73143;45.456;11.064;2024-02-23T05:37:26;11.84;72.64
68746;SHT31;73143;45.456;11.064;2024-02-23T05:40:05;11.84;72.70
68746;SHT31;73143;45.456;11.064;2024-02-23T05:42:44;11.87;72.53
68746;SHT31;73143;45.456;11.064;2024-02-23T05:45:22;11.89;72.49
68746;SHT31;73143;45.456;11.064;2024-02-23T05:48:00;11.91;72.43
68746;SHT31;73143;45.456;11.064;2024-02-23T05:50:38;11.92;72.33
68746;SHT31;73143;45.456;11.064;2024-02-23T05:53:16;11.93;72.35
68746;SHT31;73143;45.456;11.064;2024-02-23T05:55:53;11.93;72.62
68746;SHT31;73143;45.456;11.064;2024-02-23T05:58:30;11.90;72.72
68746;SHT31;73143;45.456;11.064;2024-02-23T06:01:07;11.93;72.15
68746;SHT31;73143;45.456;11.064;2024-02-23T06:03:45;11.98;71.98
68746;SHT31;73143;45.456;11.064;2024-02-23T06:06:27;12.02;71.85
68746;SHT31;73143;45.456;11.064;2024-02-23T06:09:05;12.08;71.68
68746;SHT31;73143;45.456;11.064;2024-02-23T06:11:42;12.08;72.13
68746;SHT31;73143;45.456;11.064;2024-02-23T06:14:19;12.08;72.49
68746;SHT31;73143;45.456;11.064;2024-02-23T06:16:56;12.05;72.75
68746;SHT31;73143;45.456;11.064;2024-02-23T06:19:32;12.02;72.93
68746;SHT31;73143;45.456;11.064;2024-02-23T06:22:09;12.02;72.92
68746;SHT31;73143;45.456;11.064;2024-02-23T06:24:50;12.00;72.91
68746;SHT31;73143;45.456;11.064;2024-02-23T06:27:27;12.00;72.88
68746;SHT31;73143;45.456;11.064;2024-02-23T06:30:07;12.00;72.88
68746;SHT31;73143;45.456;11.064;2024-02-23T06:32:49;11.99;72.94
68746;SHT31;73143;45.456;11.064;2024-02-23T06:35:26;11.99;73.07
68746;SHT31;73143;45.456;11.064;2024-02-23T06:38:04;11.97;73.39
68746;SHT31;73143;45.456;11.064;2024-02-23T06:40:42;11.95;73.62
68746;SHT31;73143;45.456;11.064;2024-02-23T06:43:20;11.93;73.80
68746;SHT31;73143;45.456;11.064;2024-02-23T06:45:57;11.92;73.88
68746;SHT31;73143;45.456;11.064;2024-02-23T06:48:37;11.91;74.26
68746;SHT31;73143;45.456;11.064;2024-02-23T06:51:17;11.88;74.41
68746;SHT31;73143;45.456;11.064;2024-02-23T06:53:53;11.86;74.23
68746;SHT31;73143;45.456;11.064;2024-02-23T06:56:30;11.86;74.58
68746;SHT31;73143;45.456;11.064;2024-02-23T06:59:07;11.83;75.18
68746;SHT31;73143;45.456;11.064;2024-02-23T07:01:51;11.78;75.76
68746;SHT31;73143;45.456;11.064;2024-02-23T07:04:28;11.72;76.34
68746;SHT31;73143;45.456;11.064;2024-02-23T07:07:06;11.67;76.58
68746;SHT31;73143;45.456;11.064;2024-02-23T07:09:43;11.62;76.90
68746;SHT31;73143;45.456;11.064;2024-02-23T07:12:21;11.60;77.00
68746;SHT31;73143;45.456;11.064;2024-02-23T07:15:00;11.57;77.23
68746;SHT31;73143;45.456;11.064;2024-02-23T07:17:39;11.59;76.83
68746;SHT31;73143;45.456;11.064;2024-02-23T07:20:18;11.60;77.37
68746;SHT31;73143;45.456;11.064;2024-02-23T07:22:55;11.56;77.74
68746;SHT31;73143;45.456;11.064;2024-02-23T07:25:33;11.52;78.00
68746;SHT31;73143;45.456;11.064;2024-02-23T07:28:10;11.49;78.27
68746;SHT31;73143;45.456;11.064;2024-02-23T07:30:52;11.46;78.49
68746;SHT31;73143;45.456;11.064;2024-02-23T07:33:29;11.44;78.24
68746;SHT31;73143;45.456;11.064;2024-02-23T07:36:09;11.48;78.15
68746;SHT31;73143;45.456;11.064;2024-02-23T07:38:51;11.47;78.40
68746;SHT31;73143;45.456;11.064;2024-02-23T07:41:28;11.46;78.70
68746;SHT31;73143;45.456;11.064;2024-02-23T07:44:05;11.43;78.83
68746;SHT31;73143;45.456;11.064;2024-02-23T07:46:43;11.41;79.04
68746;SHT31;73143;45.456;11.064;2024-02-23T07:49:21;11.38;79.25
68746;SHT31;73143;45.456;11.064;2024-02-23T07:51:58;11.38;79.12
68746;SHT31;73143;45.456;11.064;2024-02-23T07:54:39;11.36;79.28
68746;SHT31;73143;45.456;11.064;2024-02-23T07:57:17;11.34;79.52
68746;SHT31;73143;45.456;11.064;2024-02-23T07:59:53;11.32;79.63
68746;SHT31;73143;45.456;11.064;2024-02-23T08:02:39;11.29;79.72
68746;SHT31;73143;45.456;11.064;2024-02-23T08:05:16;11.29;79.88
68746;SHT31;73143;45.456;11.064;2024-02-23T08:07:54;11.28;79.74
68746;SHT31;73143;45.456;11.064;2024-02-23T08:10:33;11.30;79.48
68746;SHT31;73143;45.456;11.064;2024-02-23T08:13:10;11.33;79.59
68746;SHT31;73143;45.456;11.064;2024-02-23T08:15:48;11.32;79.45
68746;SHT31;73143;45.456;11.064;2024-02-23T08:18:25;11.35;79.47
68746;SHT31;73143;45.456;11.064;2024-02-23T08:21:02;11.35;79.60
68746;SHT31;73143;45.456;11.064;2024-02-23T08:23:40;11.35;79.65
68746;SHT31;73143;45.456;11.064;2024-02-23T08:26:18;11.35;79.85
68746;SHT31;73143;45.456;11.064;2024-02-23T08:28:54;11.36;80.08
68746;SHT31;73143;45.456;11.064;2024-02-23T08:31:31;11.35;80.28
68746;SHT31;73143;45.456;11.064;2024-02-23T08:34:10;11.36;80.27
68746;SHT31;73143;45.456;11.064;2024-02-23T08:36:48;11.36;80.39
68746;SHT31;73143;45.456;11.064;2024-02-23T08:39:25;11.36;80.53
68746;SHT31;73143;45.456;11.064;2024-02-23T08:42:03;11.37;80.57
68746;SHT31;73143;45.456;11.064;2024-02-23T08:44:42;11.37;80.56
68746;SHT31;73143;45.456;11.064;2024-02-23T08:47:19;11.39;80.22
68746;SHT31;73143;45.456;11.064;2024-02-23T08:50:01;11.43;79.93
68746;SHT31;73143;45.456;11.064;2024-02-23T08:52:42;11.45;79.93
68746;SHT31;73143;45.456;11.064;2024-02-23T08:55:20;11.46;80.16
68746;SHT31;73143;45.456;11.064;2024-02-23T08:57:56;11.46;80.20
68746;SHT31;73143;45.456;11.064;2024-02-23T09:00:35;11.48;80.13
68746;SHT31;73143;45.456;11.064;2024-02-23T09:03:13;11.49;80.27
68746;SHT31;73143;45.456;11.064;2024-02-23T09:05:50;11.52;80.06
68746;SHT31;73143;45.456;11.064;2024-02-23T09:08:27;11.56;79.80
68746;SHT31;73143;45.456;11.064;2024-02-23T09:11:05;11.60;80.25
68746;SHT31;73143;45.456;11.064;2024-02-23T09:13:43;11.61;80.83
68746;SHT31;73143;45.456;11.064;2024-02-23T09:16:19;11.62;79.99
68746;SHT31;73143;45.456;11.064;2024-02-23T09:18:57;11.67;79.79
68746;SHT31;73143;45.456;11.064;2024-02-23T09:21:35;11.71;79.22
68746;SHT31;73143;45.456;11.064;2024-02-23T09:24:12;11.76;79.25
68746;SHT31;73143;45.456;11.064;2024-02-23T09:26:51;11.79;79.25
68746;SHT31;73143;45.456;11.064;2024-02-23T09:29:28;11.81;79.38
68746;SHT31;73143;45.456;11.064;2024-02-23T09:32:06;11.80;79.70
68746;SHT31;73143;45.456;11.064;2024-02-23T09:34:43;11.79;80.09
68746;SHT31;73143;45.456;11.064;2024-02-23T09:37:19;11.79;80.31
68746;SHT31;73143;45.456;11.064;2024-02-23T09:39:57;11.78;80.66
68746;SHT31;73143;45.456;11.064;2024-02-23T09:42:34;11.77;80.58
68746;SHT31;73143;45.456;11.064;2024-02-23T09:45:13;11.76;80.54
68746;SHT31;73143;45.456;11.064;2024-02-23T09:47:51;11.75;80.47
68746;SHT31;73143;45.456;11.064;2024-02-23T09:50:32;11.73;80.54
68746;SHT31;73143;45.456;11.064;2024-02-23T09:53:12;11.73;80.66
68746;SHT31;73143;45.456;11.064;2024-02-23T09:55:52;11.73;80.63
68746;SHT31;73143;45.456;11.064;2024-02-23T09:58:33;11.74;80.64
68746;SHT31;73143;45.456;11.064;2024-02-23T10:01:13;11.73;80.80
68746;SHT31;73143;45.456;11.064;2024-02-23T10:03:59;11.71;81.11
68746;SHT31;73143;45.456;11.064;2024-02-23T10:06:36;11.69;81.25
68746;SHT31;73143;45.456;11.064;2024-02-23T10:09:13;11.70;81.08
68746;SHT31;73143;45.456;11.064;2024-02-23T10:11:53;11.71;81.12
68746;SHT31;73143;45.456;11.064;2024-02-23T10:14:30;11.69;81.30
68746;SHT31;73143;45.456;11.064;2024-02-23T10:17:08;11.69;81.26
68746;SHT31;73143;45.456;11.064;2024-02-23T10:19:45;11.73;80.46
68746;SHT31;73143;45.456;11.064;2024-02-23T10:22:22;11.76;80.79
68746;SHT31;73143;45.456;11.064;2024-02-23T10:25:01;11.76;80.87
68746;SHT31;73143;45.456;11.064;2024-02-23T10:27:41;11.76;81.08
68746;SHT31;73143;45.456;11.064;2024-02-23T10:30:19;11.78;80.92
68746;SHT31;73143;45.456;11.064;2024-02-23T10:32:58;11.80;81.08
68746;SHT31;73143;45.456;11.064;2024-02-23T10:35:37;11.82;81.08
68746;SHT31;73143;45.456;11.064;2024-02-23T10:38:17;11.83;81.11
68746;SHT31;73143;45.456;11.064;2024-02-23T10:40:56;11.82;81.25
68746;SHT31;73143;45.456;11.064;2024-02-23T10:43:39;11.82;81.49
68746;SHT31;73143;45.456;11.064;2024-02-23T10:46:18;11.80;81.62
68746;SHT31;73143;45.456;11.064;2024-02-23T10:48:55;11.80;81.68
68746;SHT31;73143;45.456;11.064;2024-02-23T10:51:35;11.81;81.88
68746;SHT31;73143;45.456;11.064;2024-02-23T10:54:16;11.82;81.98
68746;SHT31;73143;45.456;11.064;2024-02-23T10:56:53;11.82;82.00
68746;SHT31;73143;45.456;11.064;2024-02-23T10:59:31;11.85;81.96
68746;SHT31;73143;45.456;11.064;2024-02-23T11:02:10;11.85;81.85
68746;SHT31;73143;45.456;11.064;2024-02-23T11:04:49;11.87;81.99
68746;SHT31;73143;45.456;11.064;2024-02-23T11:07:30;11.88;82.14
68746;SHT31;73143;45.456;11.064;2024-02-23T11:10:12;11.88;82.11
68746;SHT31;73143;45.456;11.064;2024-02-23T11:13:01;11.87;82.21
68746;SHT31;73143;45.456;11.064;2024-02-23T11:15:43;11.89;82.16
68746;SHT31;73143;45.456;11.064;2024-02-23T11:18:24;11.90;82.19
68746;SHT31;73143;45.456;11.064;2024-02-23T11:21:09;11.91;82.13
68746;SHT31;73143;45.456;11.064;2024-02-23T11:23:47;11.92;81.96
68746;SHT31;73143;45.456;11.064;2024-02-23T11:26:25;11.94;82.22
68746;SHT31;73143;45.456;11.064;2024-02-23T11:29:11;11.95;82.24
68746;SHT31;73143;45.456;11.064;2024-02-23T11:31:50;11.98;82.01
68746;SHT31;73143;45.456;11.064;2024-02-23T11:34:30;11.99;82.20
68746;SHT31;73143;45.456;11.064;2024-02-23T11:37:11;12.02;82.46
68746;SHT31;73143;45.456;11.064;2024-02-23T11:39:52;12.04;82.67
68746;SHT31;73143;45.456;11.064;2024-02-23T11:42:30;12.06;82.72
68746;SHT31;73143;45.456;11.064;2024-02-23T11:45:12;12.09;82.86
68746;SHT31;73143;45.456;11.064;2024-02-23T11:47:50;12.12;82.73
68746;SHT31;73143;45.456;11.064;2024-02-23T11:50:27;12.14;82.79
68746;SHT31;73143;45.456;11.064;2024-02-23T11:53:05;12.17;82.52
68746;SHT31;73143;45.456;11.064;2024-02-23T11:55:42;12.18;82.92
68746;SHT31;73143;45.456;11.064;2024-02-23T11:58:19;12.19;82.78
68746;SHT31;73143;45.456;11.064;2024-02-23T12:00:56;12.19;82.75
68746;SHT31;73143;45.456;11.064;2024-02-23T12:03:36;12.21;82.88
68746;SHT31;73143;45.456;11.064;2024-02-23T12:06:14;12.22;82.80
68746;SHT31;73143;45.456;11.064;2024-02-23T12:08:52;12.24;82.51
68746;SHT31;73143;45.456;11.064;2024-02-23T12:11:29;12.25;82.26
68746;SHT31;73143;45.456;11.064;2024-02-23T12:14:08;12.26;82.58
68746;SHT31;73143;45.456;11.064;2024-02-23T12:16:46;12.26;82.81
68746;SHT31;73143;45.456;11.064;2024-02-23T12:19:24;12.27;83.03
68746;SHT31;73143;45.456;11.064;2024-02-23T12:22:02;12.27;83.20
68746;SHT31;73143;45.456;11.064;2024-02-23T12:24:41;12.28;83.36
68746;SHT31;73143;45.456;11.064;2024-02-23T12:27:19;12.26;83.41
68746;SHT31;73143;45.456;11.064;2024-02-23T12:29:58;12.25;83.50
68746;SHT31;73143;45.456;11.064;2024-02-23T12:32:38;12.23;83.48
68746;SHT31;73143;45.456;11.064;2024-02-23T12:35:16;12.21;83.39
68746;SHT31;73143;45.456;11.064;2024-02-23T12:37:53;12.20;83.26
68746;SHT31;73143;45.456;11.064;2024-02-23T12:40:31;12.17;83.27
68746;SHT31;73143;45.456;11.064;2024-02-23T12:43:07;12.15;83.30
68746;SHT31;73143;45.456;11.064;2024-02-23T12:45:44;12.14;83.36
68746;SHT31;73143;45.456;11.064;2024-02-23T12:48:21;12.13;83.48
68746;SHT31;73143;45.456;11.064;2024-02-23T12:50:58;12.11;83.58
68746;SHT31;73143;45.456;11.064;2024-02-23T12:53:36;12.09;83.70
68746;SHT31;73143;45.456;11.064;2024-02-23T12:56:13;12.08;83.75
68746;SHT31;73143;45.456;11.064;2024-02-23T12:58:51;12.04;83.77
68746;SHT31;73143;45.456;11.064;2024-02-23T13:01:29;12.00;83.92
68746;SHT31;73143;45.456;11.064;2024-02-23T13:04:09;11.96;84.03
68746;SHT31;73143;45.456;11.064;2024-02-23T13:06:47;11.94;84.11
68746;SHT31;73143;45.456;11.064;2024-02-23T13:09:25;11.90;84.20
68746;SHT31;73143;45.456;11.064;2024-02-23T13:12:03;11.86;84.20
68746;SHT31;73143;45.456;11.064;2024-02-23T13:14:41;11.85;84.19
68746;SHT31;73143;45.456;11.064;2024-02-23T13:17:18;11.84;84.20
68746;SHT31;73143;45.456;11.064;2024-02-23T13:19:55;11.82;84.33
68746;SHT31;73143;45.456;11.064;2024-02-23T13:22:40;11.82;84.45
68746;SHT31;73143;45.456;11.064;2024-02-23T13:25:17;11.80;84.58
68746;SHT31;73143;45.456;11.064;2024-02-23T13:27:54;11.80;84.71
68746;SHT31;73143;45.456;11.064;2024-02-23T13:30:31;11.78;84.80
68746;SHT31;73143;45.456;11.064;2024-02-23T13:33:08;11.76;84.91
68746;SHT31;73143;45.456;11.064;2024-02-23T13:35:45;11.74;84.98
68746;SHT31;73143;45.456;11.064;2024-02-23T13:38:22;11.72;84.91
68746;SHT31;73143;45.456;11.064;2024-02-23T13:41:00;11.69;84.90
68746;SHT31;73143;45.456;11.064;2024-02-23T13:43:39;11.68;84.86
68746;SHT31;73143;45.456;11.064;2024-02-23T13:46:17;11.65;84.77
68746;SHT31;73143;45.456;11.064;2024-02-23T13:49:03;11.63;84.81
68746;SHT31;73143;45.456;11.064;2024-02-23T13:51:42;11.62;84.87
68746;SHT31;73143;45.456;11.064;2024-02-23T13:54:19;11.62;84.89
68746;SHT31;73143;45.456;11.064;2024-02-23T13:56:56;11.61;84.81
68746;SHT31;73143;45.456;11.064;2024-02-23T13:59:33;11.58;84.81
68746;SHT31;73143;45.456;11.064;2024-02-23T14:02:11;11.58;84.89
68746;SHT31;73143;45.456;11.064;2024-02-23T14:04:49;11.58;84.91
68746;SHT31;73143;45.456;11.064;2024-02-23T14:07:26;11.58;84.94
68746;SHT31;73143;45.456;11.064;2024-02-23T14:10:05;11.57;85.02
68746;SHT31;73143;45.456;11.064;2024-02-23T14:12:46;11.58;85.01
68746;SHT31;73143;45.456;11.064;2024-02-23T14:15:25;11.58;85.01
68746;SHT31;73143;45.456;11.064;2024-02-23T14:18:02;11.57;85.00
68746;SHT31;73143;45.456;11.064;2024-02-23T14:20:40;11.57;85.02
68746;SHT31;73143;45.456;11.064;2024-02-23T14:23:18;11.54;85.11
68746;SHT31;73143;45.456;11.064;2024-02-23T14:25:55;11.54;85.05
68746;SHT31;73143;45.456;11.064;2024-02-23T14:28:32;11.51;84.99
68746;SHT31;73143;45.456;11.064;2024-02-23T14:31:08;11.49;84.92
68746;SHT31;73143;45.456;11.064;2024-02-23T14:33:45;11.50;84.95
68746;SHT31;73143;45.456;11.064;2024-02-23T14:36:22;11.52;85.08
68746;SHT31;73143;45.456;11.064;2024-02-23T14:39:03;11.53;85.10
68746;SHT31;73143;45.456;11.064;2024-02-23T14:41:41;11.54;85.10
68746;SHT31;73143;45.456;11.064;2024-02-23T14:44:18;11.55;85.05
68746;SHT31;73143;45.456;11.064;2024-02-23T14:46:55;11.55;85.01
68746;SHT31;73143;45.456;11.064;2024-02-23T14:49:32;11.55;84.94
68746;SHT31;73143;45.456;11.064;2024-02-23T14:52:09;11.56;84.99
68746;SHT31;73143;45.456;11.064;2024-02-23T14:54:47;11.55;84.98
68746;SHT31;73143;45.456;11.064;2024-02-23T14:57:25;11.53;85.00
68746;SHT31;73143;45.456;11.064;2024-02-23T15:00:02;11.49;85.00
68746;SHT31;73143;45.456;11.064;2024-02-23T15:02:43;11.46;85.09
68746;SHT31;73143;45.456;11.064;2024-02-23T15:05:21;11.43;85.15
68746;SHT31;73143;45.456;11.064;2024-02-23T15:07:59;11.42;85.28
68746;SHT31;73143;45.456;11.064;2024-02-23T15:10:38;11.41;85.30
68746;SHT31;73143;45.456;11.064;2024-02-23T15:13:15;11.37;85.36
68746;SHT31;73143;45.456;11.064;2024-02-23T15:15:53;11.37;85.43
68746;SHT31;73143;45.456;11.064;2024-02-23T15:18:31;11.37;85.45
68746;SHT31;73143;45.456;11.064;2024-02-23T15:21:08;11.39;85.44
68746;SHT31;73143;45.456;11.064;2024-02-23T15:23:46;11.42;85.35
68746;SHT31;73143;45.456;11.064;2024-02-23T15:26:24;11.45;85.31
68746;SHT31;73143;45.456;11.064;2024-02-23T15:29:01;11.47;85.39
68746;SHT31;73143;45.456;11.064;2024-02-23T15:31:38;11.48;85.33
68746;SHT31;73143;45.456;11.064;2024-02-23T15:34:15;11.47;85.31
68746;SHT31;73143;45.456;11.064;2024-02-23T15:36:54;11.47;85.35
68746;SHT31;73143;45.456;11.064;2024-02-23T15:39:36;11.43;85.35
68746;SHT31;73143;45.456;11.064;2024-02-23T15:42:13;11.39;85.46
68746;SHT31;73143;45.456;11.064;2024-02-23T15:44:51;11.34;85.56
68746;SHT31;73143;45.456;11.064;2024-02-23T15:47:28;11.31;85.61
68746;SHT31;73143;45.456;11.064;2024-02-23T15:50:06;11.29;85.72
68746;SHT31;73143;45.456;11.064;2024-02-23T15:53:05;11.30;85.74
68746;SHT31;73143;45.456;11.064;2024-02-23T15:55:43;11.28;85.84
68746;SHT31;73143;45.456;11.064;2024-02-23T15:58:19;11.26;85.90
68746;SHT31;73143;45.456;11.064;2024-02-23T16:00:55;11.22;86.02
68746;SHT31;73143;45.456;11.064;2024-02-23T16:03:32;11.20;86.12
68746;SHT31;73143;45.456;11.064;2024-02-23T16:06:09;11.18;86.13
68746;SHT31;73143;45.456;11.064;2024-02-23T16:08:55;11.18;86.20
68746;SHT31;73143;45.456;11.064;2024-02-23T16:11:31;11.15;86.25
68746;SHT31;73143;45.456;11.064;2024-02-23T16:14:08;11.14;86.30
68746;SHT31;73143;45.456;11.064;2024-02-23T16:16:45;11.13;86.36
68746;SHT31;73143;45.456;11.064;2024-02-23T16:19:23;11.12;86.40
68746;SHT31;73143;45.456;11.064;2024-02-23T16:22:01;11.13;86.40